Terminal Aerodrome Forecast
Issued by NWS Blacksburg, VA

Current Version | Previous Version | Graphics & Text | Print | Product List | Glossary On
Versions: 1 2 3 4 5 6 7 8 9 10 11 12 13 14 15 16 17 18 19 20 21 22 23 24 25 26 27 28 29 30 31
390
FTUS41 KRNK 230535
TAFBLF
TAF
KBLF 230535Z 2306/2406 09007KT 3SM BR OVC003
      TEMPO 2306/2310 1/2SM FG OVC001
     FM231100 10008KT 1SM BR OVC008
     FM231400 10008KT P6SM -RA OVC012
      TEMPO 2314/2316 4SM -RA BR OVC007
     FM231600 10008KT 2SM -RA BR OVC012
     FM232200 07007KT 4SM SHRA BR OVC011=

USA.gov is the U.S. government's official web portal to all federal, state and local government web resources and services.